San Francisco, California
Traffic Map
Current Weather Conditions
San Francisco, California
Broken Clouds
Broken Clouds
22°
Feels Like: 22°
Wind Chill: 22° Ceiling: 20000
Heat Index: 22° Visibility: 10mi
Dew Point: 13° Wind: 20mph
Humidity: 57% Direction: 300° (WNW)
Pressure: 29.91in Gusts: 25mph
Raw Report DataKSFO 012156Z 30017G22KT 10SM FEW007 SCT130 BKN200 22/13 A2991 RMK AO2 SLP128 T02220133
Traffic Incident Summary
Active as of:
Severity:
Category:
InformationThere was an issue retrieving the traffic information for this location. Please try a different location or try again shortly.
Advertisements
Track Severe Weather on mobile